Stevensville, MI (49127)

1:49 AM EDT on September 04, 2015 (GMT -0400)
Lakeshore - Stevensville | | Change Station
CLOSE
Current Station
Personal Weather Station
Location: Stevensville, MI
Elevation: 640 ft
Nearby Weather Stations

Elev 640 ft 42.03 °N, 86.50 °W | Updated 5 minutes ago

Partly Cloudy
Partly Cloudy
69.2 °F
Feels Like 69.2 °F
N
0.0
Wind Variable Wind from North

Today
High -- | Low -- °F
--% Chance of Precip.
Yesterday
High -- | Low -- °F
Precip. -- in
7:14 AM 8:15 PM
Waning Gibbous, 63% visible
Pressure 29.94 in
Visibility 10.0 miles
Clouds Scattered Clouds 800 ft
Mostly Cloudy 3600 ft
Dew Point 66 °F
Humidity 91%
Rainfall Not available.
Snow Depth Not available.
UV 0 out of 12
Pollen 10.10 out of 12
Air Quality Not available.
Flu Activity Not available.
METAR KBEH 040453Z AUTO 00000KT 10SM SCT008 BKN036 21/19 A2995 RMK AO2 SLP136 T02060189 403060200
Pressure 29.94 in
Visibility 10.0 miles
Clouds Scattered Clouds 800 ft
Mostly Cloudy 3600 ft
Dew Point 66 °F
Humidity 91%
Rainfall Not available.
Snow Depth Not available.
UV 0 out of 12
Pollen 10.10 out of 12
Air Quality Not available.
Flu Activity Not available.
METAR KBEH 040453Z AUTO 00000KT 10SM SCT008 BKN036 21/19 A2995 RMK AO2 SLP136 T02060189 403060200

10-Day Weather Forecast

×

Almanac

Astronomy

Sep. 04, 2015 Rise Set
Actual Time
Civil Twilight
Nautical Twilight
Astronomical Twilight
Moon
Length of Visible Light
Length of Day
Tomorrow will be .
, % of the Moon is Illuminated

Today's Extremes

State Highs State Lows

Community

WunderPhotos

Upload Photos

1,852,129 photos uploaded!

WunderBlogs® & News

Nearby

Air Quality

  Air Quality AQ Index Pollutant
Not available.

Snow Depth

Station Depth Elevation

Earthquake Activity

City Distance Mag. Time & Date
Minimum magnitude displayed is 2.5.

Coastal Water Temperatures

Place Temperature

Stations

Nearby Weather Stations

Station Location Temp. Windchill Dew Point Humidity Wind Precip. Elev Updated Type